createdAt,value
2018-07-08T00:00:56.231Z,0
2018-07-08T00:01:56.168Z,0
2018-07-08T00:02:56.239Z,0
2018-07-08T00:03:56.273Z,0
2018-07-08T00:04:56.149Z,0
2018-07-08T00:05:56.230Z,0
2018-07-08T00:06:56.252Z,0
2018-07-08T00:07:56.241Z,0
2018-07-08T00:08:56.235Z,0
2018-07-08T00:09:56.235Z,0
2018-07-08T00:10:56.190Z,0
2018-07-08T00:11:56.178Z,0
2018-07-08T00:12:56.267Z,0
2018-07-08T00:13:56.109Z,0
2018-07-08T00:14:56.107Z,0
2018-07-08T00:15:56.134Z,0
2018-07-08T00:16:56.174Z,0
2018-07-08T00:17:56.197Z,0
2018-07-08T00:18:56.114Z,0
2018-07-08T00:19:56.141Z,0
2018-07-08T00:20:56.222Z,0
2018-07-08T00:21:56.202Z,0
2018-07-08T00:22:56.224Z,0
2018-07-08T00:23:56.172Z,0
2018-07-08T00:24:56.248Z,0
2018-07-08T00:25:56.276Z,0
2018-07-08T00:26:56.188Z,0
2018-07-08T00:27:56.222Z,0
2018-07-08T00:28:56.247Z,0
2018-07-08T00:29:56.251Z,0
2018-07-08T00:30:56.189Z,0
2018-07-08T00:31:56.310Z,0
2018-07-08T00:32:56.279Z,0
2018-07-08T00:33:56.251Z,0
2018-07-08T00:34:56.176Z,0
2018-07-08T00:35:56.228Z,0
2018-07-08T00:36:56.279Z,0
2018-07-08T00:37:56.230Z,0
2018-07-08T00:38:56.253Z,0
2018-07-08T00:39:56.336Z,0
2018-07-08T00:40:56.221Z,0
2018-07-08T00:41:56.253Z,0
2018-07-08T00:42:56.223Z,0
2018-07-08T00:43:56.259Z,0
2018-07-08T00:44:56.190Z,0
2018-07-08T00:45:56.265Z,0
2018-07-08T00:46:56.192Z,0
2018-07-08T00:47:56.193Z,0
2018-07-08T00:48:56.265Z,0
2018-07-08T00:49:56.267Z,0
2018-07-08T00:50:56.201Z,0
2018-07-08T00:51:56.268Z,0
2018-07-08T00:52:56.269Z,0
2018-07-08T00:53:56.305Z,0
2018-07-08T00:54:56.260Z,0
2018-07-08T00:55:56.342Z,0
2018-07-08T00:56:56.262Z,0
2018-07-08T00:57:56.195Z,0
2018-07-08T00:58:56.267Z,0
2018-07-08T00:59:56.215Z,0
2018-07-08T01:00:56.175Z,0
2018-07-08T01:01:56.179Z,0
2018-07-08T01:02:56.266Z,0
2018-07-08T01:03:56.211Z,0
2018-07-08T01:04:56.272Z,0
2018-07-08T01:05:56.306Z,0
2018-07-08T01:06:56.299Z,0
2018-07-08T01:07:56.303Z,0
2018-07-08T01:08:56.305Z,0
2018-07-08T01:09:56.316Z,0
2018-07-08T01:10:56.282Z,0
2018-07-08T01:11:56.302Z,0
2018-07-08T01:12:56.199Z,0
2018-07-08T01:13:56.219Z,0
2018-07-08T01:14:56.181Z,0
2018-07-08T01:15:56.236Z,0
2018-07-08T01:16:56.239Z,0
2018-07-08T01:17:56.319Z,0
2018-07-08T01:18:56.256Z,0
2018-07-08T01:19:56.200Z,0
2018-07-08T01:20:56.239Z,0
2018-07-08T01:21:56.209Z,0
2018-07-08T01:22:56.316Z,0
2018-07-08T01:23:56.282Z,0
2018-07-08T01:24:56.222Z,0
2018-07-08T01:25:56.288Z,0
2018-07-08T01:26:56.219Z,0
2018-07-08T01:27:56.287Z,0
2018-07-08T01:28:56.294Z,0
2018-07-08T01:29:56.230Z,0
2018-07-08T01:30:56.222Z,0
2018-07-08T01:31:56.302Z,0
2018-07-08T01:32:56.221Z,0
2018-07-08T01:33:56.295Z,0
2018-07-08T01:34:56.252Z,0
2018-07-08T01:35:56.268Z,0
2018-07-08T01:36:56.260Z,0
2018-07-08T01:37:56.252Z,0
2018-07-08T01:38:56.274Z,0
2018-07-08T01:39:56.317Z,0
2018-07-08T01:40:56.295Z,0
2018-07-08T01:41:56.305Z,0
2018-07-08T01:42:56.355Z,0
2018-07-08T01:43:56.330Z,0
2018-07-08T01:44:56.238Z,0
2018-07-08T01:45:56.303Z,0
2018-07-08T01:46:56.341Z,0
2018-07-08T01:47:56.334Z,0
2018-07-08T01:48:56.269Z,0
2018-07-08T01:49:56.206Z,0
2018-07-08T01:50:56.303Z,0
2018-07-08T01:51:56.275Z,0
2018-07-08T01:52:56.311Z,0
2018-07-08T01:53:56.244Z,0
2018-07-08T01:54:56.285Z,0
2018-07-08T01:55:56.212Z,0
2018-07-08T01:56:56.315Z,0
2018-07-08T01:57:56.346Z,0
2018-07-08T01:58:56.344Z,0
2018-07-08T01:59:56.210Z,0
2018-07-08T02:00:56.338Z,0
2018-07-08T02:01:56.348Z,0
2018-07-08T02:02:56.309Z,0
2018-07-08T02:03:56.317Z,0
2018-07-08T02:04:56.310Z,0
2018-07-08T02:05:56.338Z,0
2018-07-08T02:06:56.344Z,0
2018-07-08T02:07:56.317Z,0
2018-07-08T02:08:56.343Z,0
2018-07-08T02:09:56.317Z,0
2018-07-08T02:10:56.287Z,0
2018-07-08T02:11:56.317Z,0
2018-07-08T02:12:56.241Z,0
2018-07-08T02:13:56.224Z,0
2018-07-08T02:14:56.255Z,0
2018-07-08T02:15:56.322Z,0
2018-07-08T02:16:56.320Z,0
2018-07-08T02:17:56.320Z,0
2018-07-08T02:18:56.252Z,0
2018-07-08T02:19:56.255Z,0
2018-07-08T02:20:56.268Z,0
2018-07-08T02:21:56.322Z,0
2018-07-08T02:22:56.324Z,0
2018-07-08T02:23:56.265Z,0
2018-07-08T02:24:56.259Z,0
2018-07-08T02:25:56.327Z,0
2018-07-08T02:26:56.261Z,0
2018-07-08T02:27:56.260Z,0
2018-07-08T02:28:56.329Z,0
2018-07-08T02:29:56.330Z,0
2018-07-08T02:30:56.265Z,0
2018-07-08T02:31:56.337Z,0
2018-07-08T02:32:56.332Z,0
2018-07-08T02:33:56.262Z,0
2018-07-08T02:34:56.335Z,0
2018-07-08T02:35:56.252Z,0
2018-07-08T02:36:56.271Z,0
2018-07-08T02:37:56.333Z,0
2018-07-08T02:38:56.312Z,0
2018-07-08T02:39:56.367Z,0
2018-07-08T02:40:56.267Z,0
2018-07-08T02:41:56.368Z,0
2018-07-08T02:42:56.306Z,0
2018-07-08T02:43:56.260Z,0
2018-07-08T02:44:56.279Z,0
2018-07-08T02:45:56.281Z,0
2018-07-08T02:46:56.343Z,0
2018-07-08T02:47:56.345Z,0
2018-07-08T02:48:56.343Z,0
2018-07-08T02:49:56.277Z,0
2018-07-08T02:50:56.355Z,0
2018-07-08T02:51:56.280Z,0
2018-07-08T02:52:56.349Z,0
2018-07-08T02:53:56.277Z,5
2018-07-08T02:54:56.351Z,5
2018-07-08T02:55:56.281Z,5
2018-07-08T02:56:56.354Z,5
2018-07-08T02:57:56.283Z,5
2018-07-08T02:58:56.350Z,5
2018-07-08T02:59:56.283Z,5
2018-07-08T03:00:56.352Z,11
2018-07-08T03:01:56.388Z,11
2018-07-08T03:02:56.284Z,11
2018-07-08T03:03:56.369Z,11
2018-07-08T03:04:56.274Z,11
2018-07-08T03:05:56.302Z,16
2018-07-08T03:06:56.348Z,16
2018-07-08T03:07:56.230Z,16
2018-07-08T03:08:56.380Z,22
2018-07-08T03:09:56.297Z,22
2018-07-08T03:10:56.279Z,22
2018-07-08T03:11:56.234Z,28
2018-07-08T03:12:56.292Z,28
2018-07-08T03:13:56.358Z,28
2018-07-08T03:14:56.265Z,33
2018-07-08T03:15:56.357Z,33
2018-07-08T03:16:56.388Z,39
2018-07-08T03:17:56.334Z,39
2018-07-08T03:18:56.305Z,39
2018-07-08T03:19:56.262Z,45
2018-07-08T03:20:56.392Z,50
2018-07-08T03:21:56.336Z,50
2018-07-08T03:22:56.395Z,56
2018-07-08T03:23:56.265Z,56
2018-07-08T03:24:56.368Z,61
2018-07-08T03:25:56.302Z,61
2018-07-08T03:26:56.376Z,67
2018-07-08T03:27:56.375Z,73
2018-07-08T03:28:56.300Z,73
2018-07-08T03:29:56.311Z,78
2018-07-08T03:30:56.379Z,84
2018-07-08T03:31:56.375Z,90
2018-07-08T03:32:56.310Z,90
2018-07-08T03:33:56.302Z,95
2018-07-08T03:34:56.375Z,101
2018-07-08T03:35:56.390Z,106
2018-07-08T03:36:56.307Z,106
2018-07-08T03:37:56.309Z,112
2018-07-08T03:38:56.308Z,118
2018-07-08T03:39:56.309Z,123
2018-07-08T03:40:56.309Z,123
2018-07-08T03:41:56.389Z,129
2018-07-08T03:42:56.331Z,135
2018-07-08T03:43:56.280Z,140
2018-07-08T03:44:56.380Z,146
2018-07-08T03:45:56.373Z,151
2018-07-08T03:46:56.252Z,151
2018-07-08T03:47:56.291Z,151
2018-07-08T03:48:56.332Z,157
2018-07-08T03:49:56.272Z,163
2018-07-08T03:50:56.336Z,163
2018-07-08T03:51:56.291Z,157
2018-07-08T03:52:56.254Z,163
2018-07-08T03:53:56.339Z,163
2018-07-08T03:54:56.273Z,168
2018-07-08T03:55:56.318Z,180
2018-07-08T03:56:56.373Z,174
2018-07-08T03:57:56.369Z,174
2018-07-08T03:58:56.348Z,174
2018-07-08T03:59:56.315Z,180
2018-07-08T04:00:56.351Z,180
2018-07-08T04:01:56.283Z,185
2018-07-08T04:02:56.342Z,185
2018-07-08T04:03:56.281Z,185
2018-07-08T04:04:56.410Z,196
2018-07-08T04:05:56.329Z,196
2018-07-08T04:06:56.347Z,196
2018-07-08T04:07:56.406Z,196
2018-07-08T04:08:56.295Z,196
2018-07-08T04:09:56.463Z,196
2018-07-08T04:10:56.394Z,202
2018-07-08T04:11:56.430Z,208
2018-07-08T04:12:56.422Z,208
2018-07-08T04:13:56.433Z,213
2018-07-08T04:14:56.332Z,213
2018-07-08T04:15:56.330Z,213
2018-07-08T04:16:56.397Z,219
2018-07-08T04:17:56.335Z,225
2018-07-08T04:18:56.335Z,219
2018-07-08T04:19:56.324Z,225
2018-07-08T04:20:56.401Z,230
2018-07-08T04:21:56.341Z,230
2018-07-08T04:22:56.403Z,230
2018-07-08T04:23:56.297Z,236
2018-07-08T04:24:56.367Z,241
2018-07-08T04:25:56.425Z,241
2018-07-08T04:26:56.406Z,247
2018-07-08T04:27:56.339Z,253
2018-07-08T04:28:56.403Z,247
2018-07-08T04:29:56.381Z,253
2018-07-08T04:30:56.408Z,264
2018-07-08T04:31:56.417Z,270
2018-07-08T04:32:56.407Z,275
2018-07-08T04:33:56.344Z,275
2018-07-08T04:34:56.342Z,270
2018-07-08T04:35:56.371Z,275
2018-07-08T04:36:56.337Z,275
2018-07-08T04:37:56.350Z,281
2018-07-08T04:38:56.343Z,281
2018-07-08T04:39:56.342Z,275
2018-07-08T04:40:56.383Z,264
2018-07-08T04:41:56.345Z,253
2018-07-08T04:42:56.403Z,253
2018-07-08T04:43:56.375Z,253
2018-07-08T04:44:56.348Z,264
2018-07-08T04:45:56.419Z,281
2018-07-08T04:46:56.422Z,298
2018-07-08T04:47:56.397Z,320
2018-07-08T04:48:56.316Z,360
2018-07-08T04:49:56.420Z,399
2018-07-08T04:50:56.354Z,421
2018-07-08T04:51:56.384Z,410
2018-07-08T04:52:56.349Z,416
2018-07-08T04:53:56.355Z,410
2018-07-08T04:54:56.422Z,393
2018-07-08T04:55:56.334Z,393
2018-07-08T04:56:56.440Z,410
2018-07-08T04:57:56.406Z,416
2018-07-08T04:58:56.447Z,433
2018-07-08T04:59:56.340Z,438
2018-07-08T05:00:56.535Z,450
2018-07-08T05:01:56.430Z,438
2018-07-08T05:02:56.432Z,421
2018-07-08T05:03:56.454Z,405
2018-07-08T05:04:56.368Z,382
2018-07-08T05:05:56.432Z,376
2018-07-08T05:06:56.459Z,371
2018-07-08T05:07:56.409Z,382
2018-07-08T05:08:56.410Z,393
2018-07-08T05:09:56.457Z,399
2018-07-08T05:10:56.395Z,388
2018-07-08T05:11:56.434Z,382
2018-07-08T05:12:56.404Z,405
2018-07-08T05:13:56.418Z,410
2018-07-08T05:14:56.504Z,416
2018-07-08T05:15:56.410Z,388
2018-07-08T05:16:56.453Z,399
2018-07-08T05:17:56.471Z,466
2018-07-08T05:18:56.417Z,534
2018-07-08T05:19:56.339Z,562
2018-07-08T05:20:56.473Z,573
2018-07-08T05:21:56.477Z,601
2018-07-08T05:22:56.397Z,635
2018-07-08T05:23:56.446Z,669
2018-07-08T05:24:56.350Z,691
2018-07-08T05:25:56.422Z,680
2018-07-08T05:26:56.416Z,708
2018-07-08T05:27:56.402Z,765
2018-07-08T05:28:56.448Z,798
2018-07-08T05:29:56.522Z,804
2018-07-08T05:30:56.421Z,781
2018-07-08T05:31:56.489Z,776
2018-07-08T05:32:56.450Z,810
2018-07-08T05:33:56.351Z,826
2018-07-08T05:34:56.448Z,832
2018-07-08T05:35:56.354Z,815
2018-07-08T05:36:56.479Z,810
2018-07-08T05:37:56.407Z,798
2018-07-08T05:38:56.492Z,770
2018-07-08T05:39:56.481Z,753
2018-07-08T05:40:56.474Z,742
2018-07-08T05:41:56.417Z,759
2018-07-08T05:42:56.392Z,765
2018-07-08T05:43:56.414Z,770
2018-07-08T05:44:56.441Z,793
2018-07-08T05:45:56.437Z,815
2018-07-08T05:46:56.430Z,843
2018-07-08T05:47:56.499Z,883
2018-07-08T05:48:56.385Z,933
2018-07-08T05:49:56.418Z,990
2018-07-08T05:50:56.483Z,1051
2018-07-08T05:51:56.442Z,1141
2018-07-08T05:52:56.439Z,1080
2018-07-08T05:53:56.443Z,1113
2018-07-08T05:54:56.469Z,1018
2018-07-08T05:55:56.402Z,1057
2018-07-08T05:56:56.399Z,1091
2018-07-08T05:57:56.469Z,1096
2018-07-08T05:58:56.461Z,1181
2018-07-08T05:59:56.404Z,1406
2018-07-08T06:00:56.427Z,1080
2018-07-08T06:01:56.474Z,1085
2018-07-08T06:02:56.403Z,1119
2018-07-08T06:03:56.472Z,1068
2018-07-08T06:04:56.446Z,1040
2018-07-08T06:05:56.440Z,1051
2018-07-08T06:06:56.519Z,1063
2018-07-08T06:07:56.442Z,1209
2018-07-08T06:08:56.442Z,1091
2018-07-08T06:09:56.504Z,1035
2018-07-08T06:10:56.438Z,1018
2018-07-08T06:11:56.440Z,967
2018-07-08T06:12:56.443Z,945
2018-07-08T06:13:56.422Z,1006
2018-07-08T06:14:56.461Z,1080
2018-07-08T06:15:56.437Z,1136
2018-07-08T06:16:56.397Z,1181
2018-07-08T06:17:56.524Z,1198
2018-07-08T06:18:56.518Z,1192
2018-07-08T06:19:56.518Z,1215
2018-07-08T06:20:56.463Z,1271
2018-07-08T06:21:56.458Z,1597
2018-07-08T06:22:56.515Z,2497
2018-07-08T06:23:56.463Z,1440
2018-07-08T06:24:56.419Z,1473
2018-07-08T06:25:56.464Z,1546
2018-07-08T06:26:56.373Z,1738
2018-07-08T06:27:56.471Z,1721
2018-07-08T06:28:56.387Z,1698
2018-07-08T06:29:56.443Z,2705
2018-07-08T06:30:56.385Z,2334
2018-07-08T06:31:56.441Z,3155
2018-07-08T06:32:56.449Z,2176
2018-07-08T06:33:56.479Z,1946
2018-07-08T06:34:56.459Z,1906
2018-07-08T06:35:56.521Z,1901
2018-07-08T06:36:56.497Z,3515
2018-07-08T06:37:56.465Z,3498
2018-07-08T06:38:56.475Z,3493
2018-07-08T06:39:56.434Z,3195
2018-07-08T06:40:56.463Z,1946
2018-07-08T06:41:56.499Z,2626
2018-07-08T06:42:56.465Z,3358
2018-07-08T06:43:56.456Z,1878
2018-07-08T06:44:56.404Z,2649
2018-07-08T06:45:56.528Z,1912
2018-07-08T06:46:56.458Z,3380
2018-07-08T06:47:56.455Z,1726
2018-07-08T06:48:56.460Z,3436
2018-07-08T06:49:56.530Z,3251
2018-07-08T06:50:56.538Z,2767
2018-07-08T06:51:56.591Z,1496
2018-07-08T06:52:56.506Z,2300
2018-07-08T06:53:56.475Z,2857
2018-07-08T06:54:56.412Z,1715
2018-07-08T06:55:56.461Z,1721
2018-07-08T06:56:56.447Z,1670
2018-07-08T06:57:56.490Z,1760
2018-07-08T06:58:56.462Z,1620
2018-07-08T06:59:56.418Z,1670
2018-07-08T07:00:56.420Z,2998
2018-07-08T07:01:56.467Z,3105
2018-07-08T07:02:56.470Z,1715
2018-07-08T07:03:56.511Z,3813
2018-07-08T07:04:56.465Z,1642
2018-07-08T07:05:56.442Z,1575
2018-07-08T07:06:56.511Z,1546
2018-07-08T07:07:56.446Z,2058
2018-07-08T07:08:56.556Z,2396
2018-07-08T07:09:56.447Z,2199
2018-07-08T07:10:56.448Z,1665
2018-07-08T07:11:56.445Z,1760
2018-07-08T07:12:56.452Z,2356
2018-07-08T07:13:56.455Z,1951
2018-07-08T07:14:56.516Z,1653
2018-07-08T07:15:56.457Z,1800
2018-07-08T07:16:56.452Z,2216
2018-07-08T07:17:56.567Z,1878
2018-07-08T07:18:56.527Z,1912
2018-07-08T07:19:56.455Z,2407
2018-07-08T07:20:56.524Z,1788
2018-07-08T07:21:56.454Z,1794
2018-07-08T07:22:56.463Z,2176
2018-07-08T07:23:56.527Z,2115
2018-07-08T07:24:56.525Z,3436
2018-07-08T07:25:56.425Z,2070
2018-07-08T07:26:56.497Z,2199
2018-07-08T07:27:56.500Z,3875
2018-07-08T07:28:56.505Z,2081
2018-07-08T07:29:56.528Z,2936
2018-07-08T07:30:56.516Z,4230
2018-07-08T07:31:56.505Z,4263
2018-07-08T07:32:56.491Z,4398
2018-07-08T07:33:56.553Z,4393
2018-07-08T07:34:56.438Z,1693
2018-07-08T07:35:56.432Z,1794
2018-07-08T07:36:56.502Z,1845
2018-07-08T07:37:56.524Z,2205
2018-07-08T07:38:56.434Z,3420
2018-07-08T07:39:56.523Z,3043
2018-07-08T07:40:56.484Z,1665
2018-07-08T07:41:56.482Z,1501
2018-07-08T07:42:56.531Z,1524
2018-07-08T07:43:56.509Z,1591
2018-07-08T07:44:56.466Z,1653
2018-07-08T07:45:56.575Z,1608
2018-07-08T07:46:56.539Z,2002
2018-07-08T07:47:56.480Z,1743
2018-07-08T07:48:56.474Z,2986
2018-07-08T07:49:56.542Z,2626
2018-07-08T07:50:56.545Z,1501
2018-07-08T07:51:56.479Z,1788
2018-07-08T07:52:56.542Z,4500
2018-07-08T07:53:56.542Z,4545
2018-07-08T07:54:56.506Z,3290
2018-07-08T07:55:56.519Z,4078
2018-07-08T07:56:56.549Z,1811
2018-07-08T07:57:56.522Z,4781
2018-07-08T07:58:56.558Z,2025
2018-07-08T07:59:56.459Z,4460
2018-07-08T08:00:56.579Z,4404
2018-07-08T08:01:56.578Z,4320
2018-07-08T08:02:56.531Z,4466
2018-07-08T08:03:56.507Z,1839
2018-07-08T08:04:56.452Z,3960
2018-07-08T08:05:56.543Z,2390
2018-07-08T08:06:56.549Z,4421
2018-07-08T08:07:56.522Z,4297
2018-07-08T08:08:56.460Z,4196
2018-07-08T08:09:56.523Z,4235
2018-07-08T08:10:56.460Z,2531
2018-07-08T08:11:56.481Z,4365
2018-07-08T08:12:56.517Z,4359
2018-07-08T08:13:56.605Z,4365
2018-07-08T08:14:56.465Z,4550
2018-07-08T08:15:56.595Z,4528
2018-07-08T08:16:56.497Z,4567
2018-07-08T08:17:56.500Z,4511
2018-07-08T08:18:56.567Z,4500
2018-07-08T08:19:56.538Z,4500
2018-07-08T08:20:56.566Z,4500
2018-07-08T08:21:56.528Z,4539
2018-07-08T08:22:56.586Z,4657
2018-07-08T08:23:56.541Z,4455
2018-07-08T08:24:56.599Z,4438
2018-07-08T08:25:56.604Z,4663
2018-07-08T08:26:56.565Z,4747
2018-07-08T08:27:56.596Z,4730
2018-07-08T08:28:56.534Z,4725
2018-07-08T08:29:56.586Z,4719
2018-07-08T08:30:56.568Z,4353
2018-07-08T08:31:56.533Z,4584
2018-07-08T08:32:56.471Z,4500
2018-07-08T08:33:56.504Z,4567
2018-07-08T08:34:56.526Z,4528
2018-07-08T08:35:56.550Z,4516
2018-07-08T08:36:56.481Z,4488
2018-07-08T08:37:56.538Z,4545
2018-07-08T08:38:56.476Z,4595
2018-07-08T08:39:56.571Z,4606
2018-07-08T08:40:56.608Z,4691
2018-07-08T08:41:56.536Z,4696
2018-07-08T08:42:56.554Z,4674
2018-07-08T08:43:56.474Z,4730
2018-07-08T08:44:56.603Z,4747
2018-07-08T08:45:56.677Z,4775
2018-07-08T08:46:56.511Z,4815
2018-07-08T08:47:56.585Z,4826
2018-07-08T08:48:56.541Z,4882
2018-07-08T08:49:56.583Z,4882
2018-07-08T08:50:56.584Z,4882
2018-07-08T08:51:56.517Z,4899
2018-07-08T08:52:56.581Z,4865
2018-07-08T08:53:56.520Z,4843
2018-07-08T08:54:56.585Z,4815
2018-07-08T08:55:56.589Z,4826
2018-07-08T08:56:56.569Z,4770
2018-07-08T08:57:56.630Z,4792
2018-07-08T08:58:56.608Z,4792
2018-07-08T08:59:56.668Z,4848
2018-07-08T09:00:56.615Z,4910
2018-07-08T09:01:56.592Z,4888
2018-07-08T09:02:56.563Z,4938
2018-07-08T09:03:56.491Z,4995
2018-07-08T09:04:56.571Z,5000
2018-07-08T09:05:56.482Z,5045
2018-07-08T09:06:56.463Z,5040
2018-07-08T09:07:56.537Z,5006
2018-07-08T09:08:56.574Z,5006
2018-07-08T09:09:56.551Z,5006
2018-07-08T09:10:56.551Z,4916
2018-07-08T09:11:56.528Z,4860
2018-07-08T09:12:56.462Z,4826
2018-07-08T09:13:56.532Z,4837
2018-07-08T09:14:56.530Z,4933
2018-07-08T09:15:56.501Z,4961
2018-07-08T09:16:56.570Z,4966
2018-07-08T09:17:56.519Z,5034
2018-07-08T09:18:56.513Z,5079
2018-07-08T09:19:56.543Z,5107
2018-07-08T09:20:56.637Z,5096
2018-07-08T09:21:56.634Z,5113
2018-07-08T09:22:56.514Z,5124
2018-07-08T09:23:56.556Z,5130
2018-07-08T09:24:56.651Z,5163
2018-07-08T09:25:56.574Z,5186
2018-07-08T09:26:56.645Z,5203
2018-07-08T09:27:56.596Z,5180
2018-07-08T09:28:56.574Z,5197
2018-07-08T09:29:56.584Z,5186
2018-07-08T09:30:56.643Z,5186
2018-07-08T09:31:56.610Z,5152
2018-07-08T09:32:56.616Z,5214
2018-07-08T09:33:56.611Z,5220
2018-07-08T09:34:56.641Z,5253
2018-07-08T09:35:56.614Z,5270
2018-07-08T09:36:56.651Z,5236
2018-07-08T09:37:56.510Z,5265
2018-07-08T09:38:56.832Z,5293
2018-07-08T09:39:56.554Z,5315
2018-07-08T09:40:56.654Z,5338
2018-07-08T09:41:56.516Z,5338
2018-07-08T09:42:56.571Z,5338
2018-07-08T09:43:56.581Z,5377
2018-07-08T09:44:56.578Z,5411
2018-07-08T09:45:56.676Z,5388
2018-07-08T09:46:56.587Z,5349
2018-07-08T09:47:56.661Z,5321
2018-07-08T09:48:56.591Z,5276
2018-07-08T09:49:56.621Z,5310
2018-07-08T09:50:56.622Z,5287
2018-07-08T09:51:56.604Z,5265
2018-07-08T09:52:56.526Z,5242
2018-07-08T09:53:56.625Z,5259
2018-07-08T09:54:56.562Z,5298
2018-07-08T09:55:56.630Z,5360
2018-07-08T09:56:56.562Z,5400
2018-07-08T09:57:56.637Z,5439
2018-07-08T09:58:56.562Z,5484
2018-07-08T09:59:56.646Z,5535
2018-07-08T10:00:56.629Z,5551
2018-07-08T10:01:56.564Z,5563
2018-07-08T10:02:56.567Z,5596
2018-07-08T10:03:56.567Z,5602
2018-07-08T10:04:56.655Z,5608
2018-07-08T10:05:56.606Z,5557
2018-07-08T10:06:56.592Z,5478
2018-07-08T10:07:56.540Z,5416
2018-07-08T10:08:56.671Z,5405
2018-07-08T10:09:56.611Z,5433
2018-07-08T10:10:56.685Z,5456
2018-07-08T10:11:56.609Z,5467
2018-07-08T10:12:56.643Z,5473
2018-07-08T10:13:56.676Z,5484
2018-07-08T10:14:56.689Z,5495
2018-07-08T10:15:56.518Z,5540
2018-07-08T10:16:56.632Z,5675
2018-07-08T10:17:56.581Z,5748
2018-07-08T10:18:56.580Z,5698
2018-07-08T10:19:56.774Z,5580
2018-07-08T10:20:56.604Z,5518
2018-07-08T10:21:56.536Z,5422
2018-07-08T10:22:56.674Z,5400
2018-07-08T10:23:56.513Z,5383
2018-07-08T10:24:56.621Z,5416
2018-07-08T10:25:56.646Z,5540
2018-07-08T10:26:56.651Z,5608
2018-07-08T10:27:56.584Z,5670
2018-07-08T10:28:56.651Z,5658
2018-07-08T10:29:56.646Z,5613
2018-07-08T10:30:56.584Z,5602
2018-07-08T10:32:56.655Z,5574
2018-07-08T10:33:56.585Z,5574
2018-07-08T10:34:56.653Z,5596
2018-07-08T10:35:56.611Z,5613
2018-07-08T10:36:56.559Z,5551
2018-07-08T10:37:56.627Z,5518
2018-07-08T10:38:56.554Z,5512
2018-07-08T10:39:56.591Z,5495
2018-07-08T10:40:56.635Z,5529
2018-07-08T10:41:56.609Z,5546
2018-07-08T10:42:56.630Z,5529
2018-07-08T10:43:56.634Z,5557
2018-07-08T10:44:56.688Z,5563
2018-07-08T10:45:56.639Z,5546
2018-07-08T10:46:56.661Z,5574
2018-07-08T10:47:56.563Z,5557
2018-07-08T10:48:56.641Z,5512
2018-07-08T10:49:56.560Z,5478
2018-07-08T10:50:56.566Z,5456
2018-07-08T10:51:56.700Z,5439
2018-07-08T10:52:56.589Z,5343
2018-07-08T10:53:56.644Z,5253
2018-07-08T10:54:56.700Z,5214
2018-07-08T10:55:56.665Z,5152
2018-07-08T10:56:56.604Z,5068
2018-07-08T10:57:56.623Z,4995
2018-07-08T10:58:56.672Z,4944
2018-07-08T10:59:56.604Z,4865
2018-07-08T11:00:56.673Z,4893
2018-07-08T11:01:56.670Z,4955
2018-07-08T11:02:56.606Z,5040
2018-07-08T11:03:56.707Z,5163
2018-07-08T11:04:56.673Z,5349
2018-07-08T11:05:56.609Z,5484
2018-07-08T11:06:56.674Z,5580
2018-07-08T11:07:56.610Z,5619
2018-07-08T11:08:56.674Z,5686
2018-07-08T11:09:56.675Z,5703
2018-07-08T11:10:56.630Z,5709
2018-07-08T11:11:56.680Z,5743
2018-07-08T11:12:56.678Z,5737
2018-07-08T11:13:56.679Z,5726
2018-07-08T11:14:56.612Z,5715
2018-07-08T11:15:56.584Z,5613
2018-07-08T11:16:56.715Z,5563
2018-07-08T11:17:56.610Z,5551
2018-07-08T11:18:56.713Z,5535
2018-07-08T11:19:56.652Z,5574
2018-07-08T11:20:56.767Z,5602
2018-07-08T11:21:56.626Z,5625
2018-07-08T11:22:56.704Z,5608
2018-07-08T11:23:56.649Z,5546
2018-07-08T11:24:56.711Z,5473
2018-07-08T11:25:56.623Z,5400
2018-07-08T11:26:56.695Z,5321
2018-07-08T11:27:56.628Z,5231
2018-07-08T11:28:56.691Z,5169
2018-07-08T11:29:56.623Z,5113
2018-07-08T11:30:56.690Z,5107
2018-07-08T11:31:56.694Z,5169
2018-07-08T11:32:56.626Z,5214
2018-07-08T11:33:56.623Z,5208
2018-07-08T11:34:56.695Z,5236
2018-07-08T11:35:56.665Z,5225
2018-07-08T11:36:56.727Z,5321
2018-07-08T11:37:56.724Z,5343
2018-07-08T11:38:56.769Z,5394
2018-07-08T11:39:56.716Z,5506
2018-07-08T11:40:56.604Z,5608
2018-07-08T11:41:56.722Z,5647
2018-07-08T11:42:56.755Z,5613
2018-07-08T11:43:56.699Z,5557
2018-07-08T11:44:56.676Z,5456
2018-07-08T11:45:56.602Z,5388
2018-07-08T11:46:56.741Z,5343
2018-07-08T11:47:56.640Z,5321
2018-07-08T11:48:56.672Z,5276
2018-07-08T11:49:56.760Z,5259
2018-07-08T11:50:56.687Z,5236
2018-07-08T11:51:56.686Z,5281
2018-07-08T11:52:56.723Z,5355
2018-07-08T11:53:56.675Z,5428
2018-07-08T11:54:56.681Z,5478
2018-07-08T11:55:56.707Z,5580
2018-07-08T11:56:56.724Z,5641
2018-07-08T11:57:56.607Z,5681
2018-07-08T11:58:56.727Z,5647
2018-07-08T11:59:56.731Z,5636
2018-07-08T12:00:56.650Z,5602
2018-07-08T12:01:56.719Z,5568
2018-07-08T12:02:56.713Z,5551
2018-07-08T12:03:56.638Z,5557
2018-07-08T12:04:56.713Z,5535
2018-07-08T12:05:56.635Z,5473
2018-07-08T12:06:56.692Z,5377
2018-07-08T12:07:56.717Z,5321
2018-07-08T12:08:56.762Z,5315
2018-07-08T12:09:56.742Z,5298
2018-07-08T12:10:56.639Z,5248
2018-07-08T12:11:56.620Z,5259
2018-07-08T12:12:56.737Z,5265
2018-07-08T12:13:56.756Z,5248
2018-07-08T12:14:56.759Z,5242
2018-07-08T12:15:56.689Z,5253
2018-07-08T12:16:56.735Z,5310
2018-07-08T12:17:56.765Z,5343
2018-07-08T12:18:56.734Z,5298
2018-07-08T12:19:56.650Z,5197
2018-07-08T12:20:56.696Z,5152
2018-07-08T12:21:56.686Z,5124
2018-07-08T12:22:56.743Z,5158
2018-07-08T12:23:56.762Z,5169
2018-07-08T12:24:56.694Z,5163
2018-07-08T12:25:56.758Z,5124
2018-07-08T12:26:56.761Z,5073
2018-07-08T12:27:56.631Z,4955
2018-07-08T12:28:56.669Z,4899
2018-07-08T12:29:56.699Z,4916
2018-07-08T12:30:56.688Z,4927
2018-07-08T12:31:56.706Z,4989
2018-07-08T12:32:56.732Z,5023
2018-07-08T12:33:56.631Z,5000
2018-07-08T12:34:56.767Z,4995
2018-07-08T12:35:56.705Z,5028
2018-07-08T12:36:56.736Z,5028
2018-07-08T12:37:56.710Z,5028
2018-07-08T12:38:56.726Z,5023
2018-07-08T12:39:56.764Z,5017
2018-07-08T12:40:56.701Z,5011
2018-07-08T12:41:56.747Z,5006
2018-07-08T12:42:56.737Z,5017
2018-07-08T12:43:56.738Z,5096
2018-07-08T12:44:56.770Z,5141
2018-07-08T12:45:56.737Z,5169
2018-07-08T12:46:56.672Z,5186
2018-07-08T12:47:56.676Z,5169
2018-07-08T12:48:56.739Z,5197
2018-07-08T12:49:56.679Z,5191
2018-07-08T12:50:56.677Z,5191
2018-07-08T12:51:56.745Z,5051
2018-07-08T12:52:56.681Z,4972
2018-07-08T12:53:56.761Z,5011
2018-07-08T12:54:56.679Z,5068
2018-07-08T12:55:56.748Z,5107
2018-07-08T12:56:56.746Z,5124
2018-07-08T12:57:56.773Z,5073
2018-07-08T12:58:56.778Z,4995
2018-07-08T12:59:56.759Z,4893
2018-07-08T13:00:56.790Z,4843
2018-07-08T13:01:56.795Z,4826
2018-07-08T13:02:56.788Z,4871
2018-07-08T13:03:56.654Z,4927
2018-07-08T13:04:56.773Z,4955
2018-07-08T13:05:56.734Z,5000
2018-07-08T13:06:56.756Z,4983
2018-07-08T13:07:56.661Z,4966
2018-07-08T13:08:56.751Z,4950
2018-07-08T13:09:56.726Z,4921
2018-07-08T13:10:56.780Z,4888
2018-07-08T13:11:56.734Z,4815
2018-07-08T13:12:56.773Z,4770
2018-07-08T13:13:56.734Z,4775
2018-07-08T13:14:56.785Z,4764
2018-07-08T13:15:56.799Z,4713
2018-07-08T13:16:56.784Z,4685
2018-07-08T13:17:56.794Z,4584
2018-07-08T13:18:56.794Z,4528
2018-07-08T13:19:56.802Z,4590
2018-07-08T13:20:56.765Z,4719
2018-07-08T13:21:56.768Z,4837
2018-07-08T13:22:56.803Z,4888
2018-07-08T13:23:56.663Z,4871
2018-07-08T13:24:56.735Z,4848
2018-07-08T13:25:56.722Z,4854
2018-07-08T13:26:56.769Z,4860
2018-07-08T13:27:56.694Z,4758
2018-07-08T13:28:56.702Z,4505
2018-07-08T13:29:56.772Z,4325
2018-07-08T13:30:56.704Z,4280
2018-07-08T13:31:56.776Z,4263
2018-07-08T13:32:56.705Z,4280
2018-07-08T13:33:56.735Z,4246
2018-07-08T13:34:56.735Z,4258
2018-07-08T13:35:56.772Z,4280
2018-07-08T13:36:56.711Z,4275
2018-07-08T13:37:56.776Z,4342
2018-07-08T13:38:56.803Z,4387
2018-07-08T13:39:56.713Z,4426
2018-07-08T13:40:56.777Z,4460
2018-07-08T13:41:56.714Z,4426
2018-07-08T13:42:56.788Z,4342
2018-07-08T13:43:56.788Z,4196
2018-07-08T13:44:56.716Z,4083